createdAt,value
2022-10-06T00:00:40.118Z,2.67
2022-10-06T00:03:45.516Z,4.13
2022-10-06T00:06:51.397Z,2.90
2022-10-06T00:09:56.374Z,2.13
2022-10-06T00:13:04.074Z,3.10
2022-10-06T00:16:12.248Z,4.05
2022-10-06T00:19:17.403Z,3.53
2022-10-06T00:22:22.787Z,2.03
2022-10-06T00:25:28.708Z,2.78
2022-10-06T00:28:36.398Z,2.83
2022-10-06T00:31:41.512Z,2.50
2022-10-06T00:34:46.655Z,3.25
2022-10-06T00:37:52.272Z,5.75
2022-10-06T00:40:57.364Z,2.75
2022-10-06T00:44:05.151Z,2.30
2022-10-06T00:47:10.442Z,2.85
2022-10-06T00:50:15.895Z,2.58
2022-10-06T00:53:21.017Z,4.40
2022-10-06T00:56:26.021Z,3.03
2022-10-06T00:59:33.728Z,2.85
2022-10-06T01:02:41.023Z,3.53
2022-10-06T01:05:47.960Z,3.05
2022-10-06T01:08:53.329Z,3.33
2022-10-06T01:12:00.228Z,2.80
2022-10-06T01:15:08.494Z,2.63
2022-10-06T01:18:15.691Z,4.82
2022-10-06T01:21:24.429Z,3.30
2022-10-06T01:24:32.417Z,3.85
2022-10-06T01:27:39.016Z,2.72
2022-10-06T01:30:51.265Z,5.82
2022-10-06T01:33:57.491Z,5.57
2022-10-06T01:37:02.723Z,5.00
2022-10-06T01:40:11.539Z,4.30
2022-10-06T01:43:16.995Z,4.25
2022-10-06T01:46:22.119Z,6.03
2022-10-06T01:49:27.255Z,5.72
2022-10-06T01:52:32.298Z,4.13
2022-10-06T01:55:39.967Z,3.58
2022-10-06T01:58:45.190Z,6.55
2022-10-06T02:01:50.475Z,3.83
2022-10-06T02:04:55.562Z,3.65
2022-10-06T02:08:00.785Z,3.63
2022-10-06T02:11:10.794Z,3.63
2022-10-06T02:14:22.743Z,3.72
2022-10-06T02:17:28.045Z,5.20
2022-10-06T02:20:33.058Z,4.60
2022-10-06T02:23:38.296Z,4.13
2022-10-06T02:26:46.197Z,4.72
2022-10-06T02:29:52.022Z,2.90
2022-10-06T02:32:57.263Z,4.20
2022-10-06T02:36:02.603Z,4.38
2022-10-06T02:39:07.922Z,7.75
2022-10-06T02:42:15.650Z,4.63
2022-10-06T02:45:20.909Z,4.23
2022-10-06T02:48:26.875Z,4.28
2022-10-06T02:51:34.252Z,5.88
2022-10-06T02:54:39.627Z,5.90
2022-10-06T02:57:47.488Z,3.80
2022-10-06T03:00:52.890Z,7.20
2022-10-06T03:03:58.003Z,4.78
2022-10-06T03:07:03.066Z,4.32
2022-10-06T03:10:13.594Z,3.72
2022-10-06T03:13:21.179Z,4.93
2022-10-06T03:16:27.826Z,3.72
2022-10-06T03:19:33.291Z,5.00
2022-10-06T03:22:38.568Z,3.75
2022-10-06T03:25:43.955Z,5.90
2022-10-06T03:28:52.459Z,4.85
2022-10-06T03:31:57.650Z,4.55
2022-10-06T03:35:03.605Z,3.88
2022-10-06T03:38:09.176Z,5.13
2022-10-06T03:41:15.625Z,6.40
2022-10-06T03:44:23.870Z,6.40
2022-10-06T03:47:32.167Z,5.93
2022-10-06T03:50:37.311Z,5.45
2022-10-06T03:53:43.271Z,4.72
2022-10-06T03:56:48.834Z,13.15
2022-10-06T03:59:59.468Z,8.93
2022-10-06T04:03:04.757Z,5.55
2022-10-06T04:06:12.268Z,7.32
2022-10-06T04:09:17.604Z,9.43
2022-10-06T04:12:22.935Z,5.03
2022-10-06T04:15:30.723Z,7.65
2022-10-06T04:18:35.846Z,5.07
2022-10-06T04:21:41.513Z,7.07
2022-10-06T04:24:49.240Z,6.72
2022-10-06T04:27:54.514Z,5.90
2022-10-06T04:31:03.301Z,7.97
2022-10-06T04:34:09.704Z,5.93
2022-10-06T04:37:15.318Z,5.53
2022-10-06T04:40:22.002Z,7.88
2022-10-06T04:43:28.279Z,7.78
2022-10-06T04:46:44.953Z,9.10
2022-10-06T04:49:50.816Z,7.30
2022-10-06T04:52:56.349Z,9.25
2022-10-06T04:56:02.782Z,7.22
2022-10-06T04:59:09.928Z,6.95
2022-10-06T05:02:20.932Z,6.15
2022-10-06T05:05:30.028Z,6.43
2022-10-06T05:08:35.596Z,6.53
2022-10-06T05:11:41.107Z,4.75
2022-10-06T05:14:49.810Z,7.20
2022-10-06T05:17:58.490Z,5.13
2022-10-06T05:21:06.647Z,7.23
2022-10-06T05:24:12.292Z,8.85
2022-10-06T05:27:17.789Z,8.75
2022-10-06T05:30:23.002Z,9.98
2022-10-06T05:33:32.298Z,7.35
2022-10-06T05:39:43.833Z,5.18
2022-10-06T05:42:49.111Z,6.88
2022-10-06T05:45:57.516Z,7.00
2022-10-06T05:52:12.640Z,5.78
2022-10-06T05:55:19.106Z,5.82
2022-10-06T05:58:24.381Z,4.75
2022-10-06T06:01:30.382Z,8.27
2022-10-06T06:04:36.065Z,5.30
2022-10-06T06:07:44.125Z,6.97
2022-10-06T06:10:49.232Z,7.18
2022-10-06T06:13:54.563Z,5.57
2022-10-06T06:16:57.352Z,4.90
2022-10-06T06:20:02.843Z,5.93
2022-10-06T06:23:10.688Z,5.00
2022-10-06T06:26:17.717Z,6.53
2022-10-06T06:29:25.648Z,5.30
2022-10-06T06:32:31.238Z,5.90
2022-10-06T06:35:36.864Z,4.90
2022-10-06T06:38:44.606Z,6.13
2022-10-06T06:41:49.803Z,6.63
2022-10-06T06:45:14.449Z,5.50
2022-10-06T06:48:39.846Z,5.35
2022-10-06T06:51:49.898Z,5.32
2022-10-06T06:55:00.768Z,6.38
2022-10-06T06:58:06.296Z,5.68
2022-10-06T07:01:14.574Z,5.60
2022-10-06T07:04:21.961Z,4.28
2022-10-06T07:07:27.630Z,7.28
2022-10-06T07:10:36.450Z,4.97
2022-10-06T07:13:42.812Z,4.53
2022-10-06T07:17:00.247Z,7.25
2022-10-06T07:20:18.862Z,4.50
2022-10-06T07:23:36.518Z,4.30
2022-10-06T07:26:49.127Z,4.93
2022-10-06T07:29:56.006Z,5.13
2022-10-06T07:33:02.141Z,5.45
2022-10-06T07:36:07.423Z,4.43
2022-10-06T07:39:12.729Z,5.50
2022-10-06T07:42:21.169Z,6.45
2022-10-06T07:45:39.357Z,9.13
2022-10-06T07:49:05.016Z,7.85
2022-10-06T07:52:11.613Z,5.82
2022-10-06T07:55:17.659Z,5.63
2022-10-06T07:58:52.889Z,5.00
2022-10-06T08:01:58.150Z,5.18
2022-10-06T08:05:03.137Z,6.80
2022-10-06T08:08:08.763Z,5.82
2022-10-06T08:11:14.738Z,8.75
2022-10-06T08:14:22.974Z,9.82
2022-10-06T08:17:28.056Z,5.75
2022-10-06T08:20:33.247Z,6.20
2022-10-06T08:23:39.466Z,5.55
2022-10-06T08:26:44.547Z,5.13
2022-10-06T08:29:52.378Z,5.60
2022-10-06T08:32:59.258Z,7.03
2022-10-06T08:36:05.704Z,5.60
2022-10-06T08:39:10.799Z,6.43
2022-10-06T08:42:18.786Z,5.10
2022-10-06T08:45:27.633Z,5.83
2022-10-06T08:48:39.069Z,6.65
2022-10-06T08:51:52.394Z,7.20
2022-10-06T08:55:02.322Z,5.28
2022-10-06T08:58:13.787Z,6.78
2022-10-06T09:01:23.773Z,4.25
2022-10-06T09:04:31.269Z,5.55
2022-10-06T09:07:41.971Z,5.38
2022-10-06T09:10:51.430Z,5.03
2022-10-06T09:14:00.163Z,7.75
2022-10-06T09:17:10.910Z,5.57
2022-10-06T09:20:20.903Z,4.95
2022-10-06T09:23:38.352Z,5.40
2022-10-06T09:26:45.773Z,5.03
2022-10-06T09:29:51.919Z,6.35
2022-10-06T09:33:02.014Z,5.18
2022-10-06T09:36:09.704Z,5.82
2022-10-06T09:39:24.937Z,5.07
2022-10-06T09:42:35.957Z,3.85
2022-10-06T09:45:42.837Z,8.63
2022-10-06T09:48:50.695Z,6.90
2022-10-06T09:52:02.954Z,7.28
2022-10-06T09:55:13.026Z,5.05
2022-10-06T09:58:21.599Z,6.72
2022-10-06T10:04:35.231Z,7.75
2022-10-06T10:10:45.130Z,7.15
2022-10-06T10:13:50.412Z,8.32
2022-10-06T10:16:55.450Z,13.90
2022-10-06T10:20:04.010Z,10.43
2022-10-06T10:23:20.732Z,8.85
2022-10-06T10:26:30.666Z,10.07
2022-10-06T10:29:41.831Z,10.85
2022-10-06T10:32:50.184Z,9.20
2022-10-06T10:35:58.936Z,12.00
2022-10-06T10:39:04.216Z,9.82
2022-10-06T10:42:15.740Z,10.30
2022-10-06T10:45:22.270Z,10.48
2022-10-06T10:48:30.772Z,10.38
2022-10-06T10:54:46.889Z,9.30
2022-10-06T10:57:53.527Z,10.25
2022-10-06T11:01:00.405Z,9.30
2022-10-06T11:04:06.181Z,9.38
2022-10-06T11:07:15.595Z,8.32
2022-10-06T11:10:25.178Z,8.20
2022-10-06T11:13:31.962Z,15.02
2022-10-06T11:16:40.568Z,10.85
2022-10-06T11:19:49.989Z,8.95
2022-10-06T11:22:57.309Z,10.43
2022-10-06T11:26:10.011Z,7.63
2022-10-06T11:29:22.247Z,10.40
2022-10-06T11:32:30.128Z,11.75
2022-10-06T11:35:37.648Z,9.48
2022-10-06T11:38:44.559Z,11.23
2022-10-06T11:41:55.622Z,8.88
2022-10-06T11:45:03.551Z,10.07
2022-10-06T11:48:25.465Z,8.30
2022-10-06T11:51:31.960Z,7.65
2022-10-06T11:54:49.128Z,11.98
2022-10-06T11:58:29.768Z,10.68
2022-10-06T12:01:51.783Z,9.88
2022-10-06T12:05:36.315Z,8.15
2022-10-06T12:08:42.591Z,9.80
2022-10-06T12:11:47.897Z,11.73
2022-10-06T12:18:25.937Z,11.32
2022-10-06T12:21:45.225Z,10.57
2022-10-06T12:24:56.225Z,7.80
2022-10-06T12:28:07.621Z,8.70
2022-10-06T12:31:23.917Z,9.70
2022-10-06T12:34:44.383Z,11.27
2022-10-06T12:37:54.408Z,10.23
2022-10-06T12:41:02.862Z,9.88
2022-10-06T12:44:24.639Z,10.80
2022-10-06T12:47:33.030Z,14.52
2022-10-06T12:50:39.899Z,11.27
2022-10-06T12:53:52.454Z,9.55
2022-10-06T12:57:01.530Z,13.80
2022-10-06T13:03:50.402Z,11.13
2022-10-06T13:06:55.451Z,9.60
2022-10-06T13:10:14.990Z,11.23
2022-10-06T13:13:26.764Z,10.13
2022-10-06T13:16:34.098Z,8.02
2022-10-06T13:19:39.561Z,14.63
2022-10-06T13:22:45.113Z,8.02
2022-10-06T13:25:51.340Z,8.88
2022-10-06T13:28:59.484Z,10.20
2022-10-06T13:32:08.055Z,8.73
2022-10-06T13:35:14.633Z,13.48
2022-10-06T13:38:19.717Z,9.02
2022-10-06T13:41:28.150Z,8.98
2022-10-06T13:47:41.150Z,9.85
2022-10-06T13:50:50.151Z,7.85
2022-10-06T13:57:00.617Z,10.63
2022-10-06T14:00:06.923Z,9.82
2022-10-06T14:03:22.809Z,12.93
2022-10-06T14:06:28.140Z,12.13
2022-10-06T14:09:34.586Z,12.93
2022-10-06T14:12:45.557Z,9.00
2022-10-06T14:15:51.674Z,12.63
2022-10-06T14:19:00.468Z,11.82
2022-10-06T14:22:06.786Z,9.48
2022-10-06T14:25:15.380Z,11.02
2022-10-06T14:28:20.446Z,10.98
2022-10-06T14:31:26.402Z,10.20
2022-10-06T14:34:34.404Z,8.93
2022-10-06T14:37:39.358Z,8.63
2022-10-06T14:40:44.523Z,14.13
2022-10-06T14:43:51.148Z,13.95
2022-10-06T14:46:56.203Z,12.90
2022-10-06T14:50:04.173Z,10.93
2022-10-06T14:53:10.936Z,15.32
2022-10-06T14:56:18.119Z,8.30
2022-10-06T14:59:23.549Z,9.60
2022-10-06T15:02:28.921Z,11.45
2022-10-06T15:05:56.665Z,11.25
2022-10-06T15:08:59.677Z,12.93
2022-10-06T15:12:04.810Z,12.50
2022-10-06T15:15:10.532Z,8.93
2022-10-06T15:18:15.684Z,10.68
2022-10-06T15:21:24.053Z,13.57
2022-10-06T15:24:29.390Z,13.80
2022-10-06T15:27:46.786Z,12.68
2022-10-06T15:30:51.998Z,11.60
2022-10-06T15:33:58.005Z,15.23
2022-10-06T15:37:05.663Z,13.15
2022-10-06T15:40:11.437Z,12.75
2022-10-06T15:43:36.595Z,10.38
2022-10-06T15:46:42.716Z,15.07
2022-10-06T15:49:49.631Z,13.48
2022-10-06T15:52:57.672Z,12.05
2022-10-06T15:56:02.603Z,11.10
2022-10-06T15:59:07.959Z,14.52
2022-10-06T16:02:16.325Z,13.25
2022-10-06T16:05:49.931Z,12.02
2022-10-06T16:08:57.531Z,13.50
2022-10-06T16:12:03.431Z,11.90
2022-10-06T16:15:09.270Z,14.98
2022-10-06T16:18:14.347Z,17.27
2022-10-06T16:21:19.441Z,18.67
2022-10-06T16:24:27.517Z,18.70
2022-10-06T16:27:33.652Z,16.70
2022-10-06T16:30:39.065Z,17.30
2022-10-06T16:33:45.559Z,16.67
2022-10-06T16:36:50.790Z,14.00
2022-10-06T16:39:58.575Z,18.73
2022-10-06T16:43:03.820Z,15.52
2022-10-06T16:46:10.005Z,15.88
2022-10-06T16:49:15.303Z,15.18
2022-10-06T16:52:20.393Z,14.68
2022-10-06T16:55:27.980Z,15.40
2022-10-06T16:58:38.107Z,17.77
2022-10-06T17:01:43.289Z,15.25
2022-10-06T17:04:48.222Z,15.25
2022-10-06T17:07:58.339Z,19.63
2022-10-06T17:11:09.307Z,17.70
2022-10-06T17:14:14.587Z,17.65
2022-10-06T17:17:19.704Z,15.85
2022-10-06T17:20:25.030Z,16.80
2022-10-06T17:23:30.535Z,17.70
2022-10-06T17:26:38.747Z,15.70
2022-10-06T17:32:49.895Z,15.10
2022-10-06T17:35:54.828Z,19.40
2022-10-06T17:39:01.748Z,17.33
2022-10-06T17:42:10.424Z,17.20
2022-10-06T17:45:20.382Z,17.70
2022-10-06T17:48:29.640Z,16.40
2022-10-06T17:51:34.798Z,18.15
2022-10-06T17:54:41.738Z,20.25
2022-10-06T17:57:49.557Z,16.75
2022-10-06T18:00:54.616Z,15.30
2022-10-06T18:03:59.809Z,13.40
2022-10-06T18:07:06.515Z,18.98
2022-10-06T18:10:23.953Z,16.65
2022-10-06T18:13:32.421Z,15.63
2022-10-06T18:19:45.391Z,15.88
2022-10-06T18:22:51.144Z,15.23
2022-10-06T18:25:56.378Z,15.70
2022-10-06T18:29:04.109Z,16.80
2022-10-06T18:39:01.475Z,17.40
2022-10-06T18:42:08.456Z,17.25
2022-10-06T18:45:28.816Z,14.88
2022-10-06T18:48:46.338Z,15.70
2022-10-06T18:51:57.287Z,17.65
2022-10-06T18:55:03.134Z,16.23
2022-10-06T18:58:08.566Z,14.38
2022-10-06T19:01:16.936Z,17.88
2022-10-06T19:04:23.473Z,16.63
2022-10-06T19:07:31.293Z,16.10
2022-10-06T19:10:57.301Z,21.23
2022-10-06T19:14:02.642Z,18.55
2022-10-06T19:17:14.467Z,15.52
2022-10-06T19:20:19.943Z,15.95
2022-10-06T19:23:25.295Z,15.02
2022-10-06T19:26:30.560Z,15.23
2022-10-06T19:29:37.762Z,14.88
2022-10-06T19:32:45.473Z,12.88
2022-10-06T19:35:54.114Z,14.35
2022-10-06T19:38:59.723Z,14.93
2022-10-06T19:42:17.330Z,15.82
2022-10-06T19:45:22.808Z,13.80
2022-10-06T19:48:31.177Z,13.40
2022-10-06T19:54:43.314Z,18.27
2022-10-06T19:57:49.853Z,13.82
2022-10-06T20:00:55.011Z,21.90
2022-10-06T20:04:03.074Z,18.48
2022-10-06T20:07:09.091Z,17.75
2022-10-06T20:10:14.749Z,14.55
2022-10-06T20:13:23.164Z,15.32
2022-10-06T20:16:28.409Z,16.75
2022-10-06T20:19:36.300Z,13.13
2022-10-06T20:22:41.659Z,14.30
2022-10-06T20:25:46.747Z,16.60
2022-10-06T20:28:52.085Z,14.40
2022-10-06T20:31:59.001Z,15.27
2022-10-06T20:35:07.207Z,14.25
2022-10-06T20:38:12.419Z,17.02
2022-10-06T20:41:18.166Z,16.40
2022-10-06T20:44:23.285Z,14.38
2022-10-06T20:47:28.241Z,16.27
2022-10-06T20:50:35.956Z,15.05
2022-10-06T20:53:41.309Z,15.90
2022-10-06T20:56:46.327Z,14.82
2022-10-06T20:59:52.889Z,16.83
2022-10-06T21:02:57.979Z,17.10
2022-10-06T21:06:06.616Z,17.00
2022-10-06T21:09:14.277Z,16.55
2022-10-06T21:12:20.599Z,16.38
2022-10-06T21:15:25.722Z,15.30
2022-10-06T21:18:31.371Z,21.50
2022-10-06T21:21:40.250Z,16.23
2022-10-06T21:24:45.356Z,19.48
2022-10-06T21:27:50.591Z,17.02
2022-10-06T21:30:56.707Z,18.52
2022-10-06T21:34:02.752Z,16.55
2022-10-06T21:37:10.736Z,17.63
2022-10-06T21:40:16.004Z,28.02
2022-10-06T21:43:21.038Z,18.75
2022-10-06T21:46:28.785Z,16.05
2022-10-06T21:49:33.965Z,20.02
2022-10-06T21:52:41.849Z,17.83
2022-10-06T21:55:46.944Z,16.23
2022-10-06T21:58:53.777Z,17.95
2022-10-06T22:01:59.875Z,16.15
2022-10-06T22:05:05.040Z,16.33
2022-10-06T22:08:13.721Z,15.70
2022-10-06T22:11:19.952Z,14.05
2022-10-06T22:14:25.136Z,18.65
2022-10-06T22:17:30.237Z,17.90
2022-10-06T22:20:35.309Z,18.85
2022-10-06T22:23:43.080Z,19.15
2022-10-06T22:26:48.800Z,17.02
2022-10-06T22:29:53.898Z,17.20
2022-10-06T22:32:59.263Z,17.48
2022-10-06T22:36:04.230Z,18.23
2022-10-06T22:39:12.308Z,18.15
2022-10-06T22:42:17.443Z,16.27
2022-10-06T22:45:22.562Z,18.98
2022-10-06T22:48:27.879Z,16.75
2022-10-06T22:51:33.179Z,19.25
2022-10-06T22:54:40.898Z,15.68
2022-10-06T22:57:46.590Z,15.00
2022-10-06T23:00:51.949Z,17.35
2022-10-06T23:03:57.833Z,15.45
2022-10-06T23:07:03.285Z,15.35
2022-10-06T23:10:11.350Z,18.25
2022-10-06T23:13:16.361Z,15.38
2022-10-06T23:16:22.437Z,13.38
2022-10-06T23:19:27.564Z,13.82
2022-10-06T23:22:32.670Z,14.80
2022-10-06T23:25:42.070Z,18.48
2022-10-06T23:28:47.486Z,17.90
2022-10-06T23:31:52.451Z,13.88
2022-10-06T23:34:57.626Z,15.40
2022-10-06T23:38:02.714Z,14.43
2022-10-06T23:41:10.965Z,15.18
2022-10-06T23:44:16.291Z,18.90
2022-10-06T23:47:21.480Z,14.63
2022-10-06T23:50:26.737Z,16.50
2022-10-06T23:53:32.309Z,12.02
2022-10-06T23:56:40.039Z,13.80
2022-10-06T23:59:45.249Z,13.73
